Crosby Carrier — WDF5669 — position and weather

sailwx.info

Track history (hours):
 
Tides and Currents Weather Stations Pressure Air Temp Water Temp Dewpoint Dewpoint Depression Visibility Wind Speed Wind Dir Waves Ship Positions

Crosby Carrier

Owner: Crosby Marine Transportation LLC, Golden Meadow, LA. More information available from US FCC via Universal Licensing System and Coast Guard Vessel Documentation Center.

Last reported at 2017-Oct-19 14:00 UTC. Time now 2017-Oct-19 14:15 UTC.
Position N 29°33' W 090°42'.

Length 21 m; draft 2.3 m.

Type: Ship. MMSI: 367465960.

Date/timePositionNaut miles runAvg speedWind from/ knotsBaromVisibWave heightAir tempDewpointWater temp
2017-Oct-19 14:00N 29°33' W 090°42'0 0.0
2017-Oct-19 13:30N 29°33' W 090°42'0 0.0
2017-Oct-19 13:00N 29°33' W 090°42'0 0.1
2017-Oct-19 12:30N 29°33' W 090°42'0 0.1
2017-Oct-19 12:00N 29°33' W 090°42'0 0.0
2017-Oct-19 11:30N 29°33' W 090°42'0 0.0
2017-Oct-19 11:00N 29°33' W 090°42'0 0.0
2017-Oct-19 10:30N 29°33' W 090°42'0 0.0
2017-Oct-19 10:00N 29°33' W 090°42'0 0.0
2017-Oct-19 09:30N 29°33' W 090°42'0 0.0
2017-Oct-19 09:00N 29°33' W 090°42'0 0.0
2017-Oct-19 08:30N 29°33' W 090°42'1 2.7
2017-Oct-19 08:00N 29°34' W 090°43'3 6.0
2017-Oct-19 07:30N 29°37' W 090°42'4 7.9
2017-Oct-19 07:00N 29°35' W 090°38'4 7.7
2017-Oct-19 06:30N 29°34' W 090°34'4 8.3
2017-Oct-19 06:00N 29°34' W 090°29'4 8.4
2017-Oct-19 05:30N 29°33' W 090°24'5 6.9
2017-Oct-19 04:49N 29°37' W 090°21'7 0.9
2017-Oct-18 20:23N 29°34' W 090°29'2 6.4
2017-Oct-18 20:00N 29°34' W 090°31'3 6.1
2017-Oct-18 19:30N 29°34' W 090°35'2 4.4
2017-Oct-18 19:00N 29°35' W 090°37'3 5.5
2017-Oct-18 18:30N 29°36' W 090°40'2 4.5
2017-Oct-18 18:00N 29°36' W 090°43'2 4.1
2017-Oct-18 17:30N 29°34' W 090°43'1 1.8
2017-Oct-18 17:00N 29°33' W 090°42'3 6.3
2017-Oct-18 16:30N 29°30' W 090°43'3 6.6
2017-Oct-18 16:00N 29°27' W 090°43'2 0.1
2017-Oct-17 23:05N 29°25' W 090°44'1 8.4
2017-Oct-17 22:56N 29°26' W 090°43'4 8.6
2017-Oct-17 22:30N 29°29' W 090°43'3 6.9
2017-Oct-17 22:00N 29°33' W 090°42'0 0.0
2017-Oct-17 21:30N 29°33' W 090°42'0 0.0
2017-Oct-17 21:00N 29°33' W 090°42'0 0.0
2017-Oct-17 20:30N 29°33' W 090°42'0 0.0
2017-Oct-17 20:00N 29°33' W 090°42'0 0.0
2017-Oct-17 19:30N 29°33' W 090°42'0 0.0
2017-Oct-17 19:00N 29°33' W 090°42'0 0.0
2017-Oct-17 18:30N 29°33' W 090°42'0 0.0
2017-Oct-17 18:00N 29°33' W 090°42'0 0.0
2017-Oct-17 17:30N 29°33' W 090°42'0 0.0
2017-Oct-17 17:00N 29°33' W 090°42'0 0.0
2017-Oct-17 16:30N 29°33' W 090°42'0 0.0
2017-Oct-17 16:00N 29°33' W 090°42'0 0.0
2017-Oct-17 15:30N 29°33' W 090°42'0 0.0
2017-Oct-17 15:00N 29°33' W 090°42'0 0.0
2017-Oct-17 14:30N 29°33' W 090°42'0 0.0
2017-Oct-17 14:00N 29°33' W 090°42'0 0.0
2017-Oct-17 13:30N 29°33' W 090°42'0 0.0
2017-Oct-17 13:00N 29°33' W 090°42'0 0.0
2017-Oct-17 12:30N 29°33' W 090°42'0 0.1
2017-Oct-17 12:00N 29°33' W 090°42'0 0.0
2017-Oct-17 11:30N 29°33' W 090°42'0 0.0
2017-Oct-17 11:00N 29°33' W 090°42'0 0.0
2017-Oct-17 10:30N 29°33' W 090°42'0 0.0
2017-Oct-17 10:00N 29°33' W 090°42'0 0.0
2017-Oct-17 09:30N 29°33' W 090°42'0 0.0
2017-Oct-17 09:00N 29°33' W 090°42'0 0.0
2017-Oct-17 08:30N 29°33' W 090°42'0 0.0
2017-Oct-17 08:00N 29°33' W 090°42'0 0.0
2017-Oct-17 07:30N 29°33' W 090°42'0 0.0
2017-Oct-17 07:00N 29°33' W 090°42'0 0.0
2017-Oct-17 06:30N 29°33' W 090°42'0 0.0
2017-Oct-17 06:00N 29°33' W 090°42'0 0.0
2017-Oct-17 05:30N 29°33' W 090°42'0 0.0
2017-Oct-17 05:00N 29°33' W 090°42'0 0.0
2017-Oct-17 04:30N 29°33' W 090°42'0 0.0
2017-Oct-17 04:00N 29°33' W 090°42'0 0.0
2017-Oct-17 03:30N 29°33' W 090°42'0 0.0
2017-Oct-17 03:00N 29°33' W 090°42'0 0.0
2017-Oct-17 02:30N 29°33' W 090°42'0 0.0
2017-Oct-17 02:00N 29°33' W 090°42'0 0.0
2017-Oct-17 01:30N 29°33' W 090°42'0 0.0
2017-Oct-17 01:00N 29°33' W 090°42'0 0.0
2017-Oct-17 00:30N 29°33' W 090°42'0 0.0
2017-Oct-17 00:00N 29°33' W 090°42'1 2.1
2017-Oct-16 23:30N 29°34' W 090°43'2 3.9
2017-Oct-16 23:00N 29°34' W 090°45'1 2.3
2017-Oct-16 22:30N 29°33' W 090°45'0 0.0
2017-Oct-16 22:00N 29°33' W 090°45'0 0.0
2017-Oct-16 21:30N 29°33' W 090°45'3 5.0
2017-Oct-16 21:00N 29°34' W 090°43'2 3.5
2017-Oct-16 20:30N 29°33' W 090°42'0 0.0
2017-Oct-16 20:00N 29°33' W 090°42'0 0.0
2017-Oct-16 19:30N 29°33' W 090°42'0 0.0
2017-Oct-16 19:00N 29°33' W 090°42'0 0.0
2017-Oct-16 18:30N 29°33' W 090°42'0 0.0
2017-Oct-16 18:00N 29°33' W 090°42'0 0.0
2017-Oct-16 17:30N 29°33' W 090°42'0 0.0
2017-Oct-16 17:00N 29°33' W 090°42'0 0.0
2017-Oct-16 16:30N 29°33' W 090°42'0 0.0
2017-Oct-16 16:00N 29°33' W 090°42'0 0.0
2017-Oct-16 15:30N 29°33' W 090°42'0 0.1
2017-Oct-16 15:00N 29°33' W 090°42'0 0.0
2017-Oct-16 14:30N 29°33' W 090°42'0 0.1
2017-Oct-16 13:30N 29°33' W 090°42'0 0.1
2017-Oct-16 13:00N 29°33' W 090°42'0 0.1
2017-Oct-16 12:30N 29°33' W 090°42'0 0.1
2017-Oct-16 12:00N 29°33' W 090°42'0 0.0
2017-Oct-16 11:30N 29°33' W 090°42'0 0.0
2017-Oct-16 11:00N 29°33' W 090°42'0 0.0
2017-Oct-16 10:30N 29°33' W 090°42'0 0.0
2017-Oct-16 10:00N 29°33' W 090°42'0 0.0
2017-Oct-16 09:30N 29°33' W 090°42'0 0.0
2017-Oct-16 09:00N 29°33' W 090°42'0 0.0
2017-Oct-16 08:30N 29°33' W 090°42'0 0.0
2017-Oct-16 08:00N 29°33' W 090°42'0 0.0
2017-Oct-16 07:30N 29°33' W 090°42'0 0.0
2017-Oct-16 07:00N 29°33' W 090°42'0 0.0
2017-Oct-16 06:30N 29°33' W 090°42'0 0.0
2017-Oct-16 06:00N 29°33' W 090°42'0 0.0
2017-Oct-16 05:30N 29°33' W 090°42'0 0.0
2017-Oct-16 05:00N 29°33' W 090°42'0 0.0
2017-Oct-16 04:30N 29°33' W 090°42'0 0.0
2017-Oct-16 04:00N 29°33' W 090°42'0 0.0
2017-Oct-16 03:31N 29°33' W 090°42'0 0.0
2017-Oct-16 03:00N 29°33' W 090°42'0 0.0
2017-Oct-16 02:30N 29°33' W 090°42'0 0.0
2017-Oct-16 02:00N 29°33' W 090°42'0 0.0
2017-Oct-16 01:30N 29°33' W 090°42'0 0.0
2017-Oct-16 01:00N 29°33' W 090°42'0 0.0
2017-Oct-16 00:30N 29°33' W 090°42'0 0.0
2017-Oct-16 00:00N 29°33' W 090°42'0 0.0
2017-Oct-15 23:30N 29°33' W 090°42'0 0.0
2017-Oct-15 23:00N 29°33' W 090°42'0 0.0
2017-Oct-15 22:30N 29°33' W 090°42'0 0.0
2017-Oct-15 22:00N 29°33' W 090°42'0 0.0
2017-Oct-15 21:30N 29°33' W 090°42'0 0.0
2017-Oct-15 21:00N 29°33' W 090°42'0 0.0
2017-Oct-15 20:30N 29°33' W 090°42'0 0.0
2017-Oct-15 20:00N 29°33' W 090°42'0 0.0
2017-Oct-15 19:30N 29°33' W 090°42'0 0.0
2017-Oct-15 19:00N 29°33' W 090°42'0 0.0
2017-Oct-15 18:30N 29°33' W 090°42'0 0.0
2017-Oct-15 18:00N 29°33' W 090°42'0 0.0
2017-Oct-15 17:30N 29°33' W 090°42'0 0.0
2017-Oct-15 17:00N 29°33' W 090°42'0 0.0
2017-Oct-15 16:30N 29°33' W 090°42'0 0.0
2017-Oct-15 16:00N 29°33' W 090°42'0 0.0
2017-Oct-15 15:30N 29°33' W 090°42'0 0.0
2017-Oct-15 15:00N 29°33' W 090°42'0 0.0
2017-Oct-15 14:00N 29°33' W 090°42'0 0.0
2017-Oct-15 13:30N 29°33' W 090°42'0 0.0
2017-Oct-15 13:00N 29°33' W 090°42'0 0.0
2017-Oct-15 12:30N 29°33' W 090°42'0 0.0
2017-Oct-15 12:00N 29°33' W 090°42'0 0.0
2017-Oct-15 11:30N 29°33' W 090°42'0 0.0
2017-Oct-15 11:00N 29°33' W 090°42'0 0.0
2017-Oct-15 10:30N 29°33' W 090°42'0 0.0
2017-Oct-15 10:00N 29°33' W 090°42'0 0.0
2017-Oct-15 09:30N 29°33' W 090°42'0 0.0
2017-Oct-15 09:00N 29°33' W 090°42'0 0.0
2017-Oct-15 08:30N 29°33' W 090°42'0 0.0
2017-Oct-15 08:00N 29°33' W 090°42'0 0.0
2017-Oct-15 07:30N 29°33' W 090°42'0 0.0
2017-Oct-15 07:00N 29°33' W 090°42'0 0.0
2017-Oct-15 06:30N 29°33' W 090°42'0 0.0
2017-Oct-15 06:00N 29°33' W 090°42'0 0.0
2017-Oct-15 05:30N 29°33' W 090°42'0 0.0
2017-Oct-15 05:00N 29°33' W 090°42'0 0.0
2017-Oct-15 04:30N 29°33' W 090°42'0 0.0
2017-Oct-15 04:00N 29°33' W 090°42'0 0.0
2017-Oct-15 03:30N 29°33' W 090°42'0 0.0
2017-Oct-15 03:00N 29°33' W 090°42'0 0.0
2017-Oct-15 02:30N 29°33' W 090°42'0 0.0
2017-Oct-15 02:00N 29°33' W 090°42'0 0.0
2017-Oct-15 01:30N 29°33' W 090°42'0 0.0
2017-Oct-15 01:00N 29°33' W 090°42'0 0.0
2017-Oct-15 00:30N 29°33' W 090°42'0 0.0
2017-Oct-15 00:00N 29°33' W 090°42'0 0.0
2017-Oct-14 23:30N 29°33' W 090°42'0 0.0
2017-Oct-14 23:00N 29°33' W 090°42'0 0.0
2017-Oct-14 22:30N 29°33' W 090°42'0 0.0
2017-Oct-14 22:00N 29°33' W 090°42'0 0.0
2017-Oct-14 21:30N 29°33' W 090°42'0 0.0
2017-Oct-14 21:00N 29°33' W 090°42'0 0.0
2017-Oct-14 20:30N 29°33' W 090°42'0 0.0
2017-Oct-14 20:00N 29°33' W 090°42'0 0.0
2017-Oct-14 19:30N 29°33' W 090°42'0 0.0
2017-Oct-14 19:00N 29°33' W 090°42'0 0.0
2017-Oct-14 18:30N 29°33' W 090°42'0 0.0
2017-Oct-14 18:00N 29°33' W 090°42'0 0.0
2017-Oct-14 17:30N 29°33' W 090°42'0 0.0
2017-Oct-14 17:00N 29°33' W 090°42'0 0.2
2017-Oct-14 16:30N 29°33' W 090°42'1 1.7
2017-Oct-14 16:00N 29°34' W 090°42'0 0.5
2017-Oct-14 15:30N 29°34' W 090°42'0 0.3
2017-Oct-14 15:00N 29°34' W 090°42'0 0.6
2017-Oct-14 14:30N 29°34' W 090°42'0 0.2
2017-Oct-14 14:00N 29°34' W 090°42'0 0.4
2017-Oct-14 13:30N 29°34' W 090°42'0 0.3
2017-Oct-14 13:00N 29°34' W 090°42'1 2.2
2017-Oct-14 12:30N 29°33' W 090°42'0 0.0
2017-Oct-14 12:00N 29°33' W 090°42'0 0.0
2017-Oct-14 11:30N 29°33' W 090°42'0 0.0
2017-Oct-14 11:00N 29°33' W 090°42'0 0.0
2017-Oct-14 10:30N 29°33' W 090°42'0 0.0
2017-Oct-14 10:00N 29°33' W 090°42'0 0.0
2017-Oct-14 09:30N 29°33' W 090°42'0 0.0
2017-Oct-14 09:00N 29°33' W 090°42'0 0.0
2017-Oct-14 08:30N 29°33' W 090°42'0 0.0
2017-Oct-14 08:00N 29°33' W 090°42'0 0.0
2017-Oct-14 07:30N 29°33' W 090°42'0 0.0
2017-Oct-14 07:00N 29°33' W 090°42'0 0.0
2017-Oct-14 06:30N 29°33' W 090°42'0 0.0
2017-Oct-14 06:00N 29°33' W 090°42'0 0.0
2017-Oct-14 05:30N 29°33' W 090°42'0 0.0
2017-Oct-14 05:00N 29°33' W 090°42'0 0.0
2017-Oct-14 04:30N 29°33' W 090°42'0 0.0
2017-Oct-14 04:00N 29°33' W 090°42'0 0.1
2017-Oct-14 03:30N 29°33' W 090°42'1 1.4
2017-Oct-14 03:00N 29°32' W 090°42'1 1.4
2017-Oct-14 02:30N 29°33' W 090°42'0 0.0
2017-Oct-14 02:00N 29°33' W 090°42'0 0.0
2017-Oct-14 01:28N 29°33' W 090°42'0 0.0
2017-Oct-14 01:01N 29°33' W 090°42'0 0.0
2017-Oct-14 00:30N 29°33' W 090°42'0 0.0
2017-Oct-14 00:00N 29°33' W 090°42'0 0.0
2017-Oct-13 23:30N 29°33' W 090°42'0 0.0
2017-Oct-13 23:00N 29°33' W 090°42'0 0.0
2017-Oct-13 22:30N 29°33' W 090°42'0 0.0
2017-Oct-13 22:00N 29°33' W 090°42'0 0.0
2017-Oct-13 21:30N 29°33' W 090°42'0 0.0
2017-Oct-13 21:00N 29°33' W 090°42'0 0.0
2017-Oct-13 20:30N 29°33' W 090°42'0 0.0
2017-Oct-13 20:00N 29°33' W 090°42'0 0.0
2017-Oct-13 19:30N 29°33' W 090°42'0 0.0
2017-Oct-13 19:00N 29°33' W 090°42'0 0.0
2017-Oct-13 18:30N 29°33' W 090°42'0 0.0
2017-Oct-13 18:00N 29°33' W 090°42'0 0.1
2017-Oct-13 17:30N 29°33' W 090°42'0 0.1
2017-Oct-13 17:00N 29°33' W 090°42'0 0.0
2017-Oct-13 16:30N 29°33' W 090°42'0 0.0
2017-Oct-13 16:00N 29°33' W 090°42'0 0.0
2017-Oct-13 15:30N 29°33' W 090°42'0 0.0
2017-Oct-13 15:00N 29°33' W 090°42'0 0.0
2017-Oct-13 14:30N 29°33' W 090°42'0 0.0
2017-Oct-13 14:00N 29°33' W 090°42'0 0.0
2017-Oct-13 13:30N 29°33' W 090°42'0 0.0
2017-Oct-13 13:00N 29°33' W 090°42'0 0.0
2017-Oct-13 12:30N 29°33' W 090°42'0 0.0
2017-Oct-13 12:00N 29°33' W 090°42'0 0.0
2017-Oct-13 11:30N 29°33' W 090°42'0 0.0
2017-Oct-13 11:00N 29°33' W 090°42'2 3.4
2017-Oct-13 10:30N 29°34' W 090°43'3 5.5
2017-Oct-13 10:00N 29°37' W 090°42'4 7.2
2017-Oct-13 09:30N 29°35' W 090°38'3 6.6
2017-Oct-13 09:00N 29°34' W 090°34'4 7.6
2017-Oct-13 08:30N 29°34' W 090°30'4 0.1
2017-Oct-12 02:56N 29°33' W 090°26'3 8.0
2017-Oct-12 02:30N 29°34' W 090°30'4 7.9
2017-Oct-12 02:00N 29°34' W 090°34'4 7.1
2017-Oct-12 01:30N 29°35' W 090°38'2 3.0
2017-Oct-12 01:00N 29°36' W 090°40'0 0.0
2017-Oct-12 00:30N 29°36' W 090°40'0 0.5
2017-Oct-12 00:00N 29°36' W 090°40'2 3.9
2017-Oct-11 23:30N 29°37' W 090°42'3 6.0
2017-Oct-11 23:00N 29°34' W 090°43'0 0.0
2017-Oct-11 22:30N 29°34' W 090°43'0 0.0
2017-Oct-11 22:00N 29°34' W 090°43'2 4.9
2017-Oct-11 21:30N 29°33' W 090°46'4 8.4
2017-Oct-11 21:00N 29°32' W 090°50'  
Track history (hours):
 
Tides and Currents Weather Stations Pressure Air Temp Water Temp Dewpoint Dewpoint Depression Visibility Wind Speed Wind Dir Waves Ship Positions

Crosby Carrier

Owner: Crosby Marine Transportation LLC, Golden Meadow, LA. More information available from US FCC via Universal Licensing System and Coast Guard Vessel Documentation Center.

Last reported at 2017-Oct-19 14:00 UTC. Time now 2017-Oct-19 14:15 UTC.
Position N 29°33' W 090°42'.

Length 21 m; draft 2.3 m.

Type: Ship. MMSI: 367465960.

Date/timePositionNaut miles runAvg speedWind from/ knotsBaromVisibWave heightAir tempDewpointWater temp
2017-Oct-19 14:00N 29°33' W 090°42'0 0.0
2017-Oct-19 13:30N 29°33' W 090°42'0 0.0
2017-Oct-19 13:00N 29°33' W 090°42'0 0.1
2017-Oct-19 12:30N 29°33' W 090°42'0 0.1
2017-Oct-19 12:00N 29°33' W 090°42'0 0.0
2017-Oct-19 11:30N 29°33' W 090°42'0 0.0
2017-Oct-19 11:00N 29°33' W 090°42'0 0.0
2017-Oct-19 10:30N 29°33' W 090°42'0 0.0
2017-Oct-19 10:00N 29°33' W 090°42'0 0.0
2017-Oct-19 09:30N 29°33' W 090°42'0 0.0
2017-Oct-19 09:00N 29°33' W 090°42'0 0.0
2017-Oct-19 08:30N 29°33' W 090°42'1 2.7
2017-Oct-19 08:00N 29°34' W 090°43'3 6.0
2017-Oct-19 07:30N 29°37' W 090°42'4 7.9
2017-Oct-19 07:00N 29°35' W 090°38'4 7.7
2017-Oct-19 06:30N 29°34' W 090°34'4 8.3
2017-Oct-19 06:00N 29°34' W 090°29'4 8.4
2017-Oct-19 05:30N 29°33' W 090°24'5 6.9
2017-Oct-19 04:49N 29°37' W 090°21'7 0.9
2017-Oct-18 20:23N 29°34' W 090°29'2 6.4
2017-Oct-18 20:00N 29°34' W 090°31'3 6.1
2017-Oct-18 19:30N 29°34' W 090°35'2 4.4
2017-Oct-18 19:00N 29°35' W 090°37'3 5.5
2017-Oct-18 18:30N 29°36' W 090°40'2 4.5
2017-Oct-18 18:00N 29°36' W 090°43'2 4.1
2017-Oct-18 17:30N 29°34' W 090°43'1 1.8
2017-Oct-18 17:00N 29°33' W 090°42'3 6.3
2017-Oct-18 16:30N 29°30' W 090°43'3 6.6
2017-Oct-18 16:00N 29°27' W 090°43'2 0.1
2017-Oct-17 23:05N 29°25' W 090°44'1 8.4
2017-Oct-17 22:56N 29°26' W 090°43'4 8.6
2017-Oct-17 22:30N 29°29' W 090°43'3 6.9
2017-Oct-17 22:00N 29°33' W 090°42'0 0.0
2017-Oct-17 21:30N 29°33' W 090°42'0 0.0
2017-Oct-17 21:00N 29°33' W 090°42'0 0.0
2017-Oct-17 20:30N 29°33' W 090°42'0 0.0
2017-Oct-17 20:00N 29°33' W 090°42'0 0.0
2017-Oct-17 19:30N 29°33' W 090°42'0 0.0
2017-Oct-17 19:00N 29°33' W 090°42'0 0.0
2017-Oct-17 18:30N 29°33' W 090°42'0 0.0
2017-Oct-17 18:00N 29°33' W 090°42'0 0.0
2017-Oct-17 17:30N 29°33' W 090°42'0 0.0
2017-Oct-17 17:00N 29°33' W 090°42'0 0.0
2017-Oct-17 16:30N 29°33' W 090°42'0 0.0
2017-Oct-17 16:00N 29°33' W 090°42'0 0.0
2017-Oct-17 15:30N 29°33' W 090°42'0 0.0
2017-Oct-17 15:00N 29°33' W 090°42'0 0.0
2017-Oct-17 14:30N 29°33' W 090°42'0 0.0
2017-Oct-17 14:00N 29°33' W 090°42'0 0.0
2017-Oct-17 13:30N 29°33' W 090°42'0 0.0
2017-Oct-17 13:00N 29°33' W 090°42'0 0.0
2017-Oct-17 12:30N 29°33' W 090°42'0 0.1
2017-Oct-17 12:00N 29°33' W 090°42'0 0.0
2017-Oct-17 11:30N 29°33' W 090°42'0 0.0
2017-Oct-17 11:00N 29°33' W 090°42'0 0.0
2017-Oct-17 10:30N 29°33' W 090°42'0 0.0
2017-Oct-17 10:00N 29°33' W 090°42'0 0.0
2017-Oct-17 09:30N 29°33' W 090°42'0 0.0
2017-Oct-17 09:00N 29°33' W 090°42'0 0.0
2017-Oct-17 08:30N 29°33' W 090°42'0 0.0
2017-Oct-17 08:00N 29°33' W 090°42'0 0.0
2017-Oct-17 07:30N 29°33' W 090°42'0 0.0
2017-Oct-17 07:00N 29°33' W 090°42'0 0.0
2017-Oct-17 06:30N 29°33' W 090°42'0 0.0
2017-Oct-17 06:00N 29°33' W 090°42'0 0.0
2017-Oct-17 05:30N 29°33' W 090°42'0 0.0
2017-Oct-17 05:00N 29°33' W 090°42'0 0.0
2017-Oct-17 04:30N 29°33' W 090°42'0 0.0
2017-Oct-17 04:00N 29°33' W 090°42'0 0.0
2017-Oct-17 03:30N 29°33' W 090°42'0 0.0
2017-Oct-17 03:00N 29°33' W 090°42'0 0.0
2017-Oct-17 02:30N 29°33' W 090°42'0 0.0
2017-Oct-17 02:00N 29°33' W 090°42'0 0.0
2017-Oct-17 01:30N 29°33' W 090°42'0 0.0
2017-Oct-17 01:00N 29°33' W 090°42'0 0.0
2017-Oct-17 00:30N 29°33' W 090°42'0 0.0
2017-Oct-17 00:00N 29°33' W 090°42'1 2.1
2017-Oct-16 23:30N 29°34' W 090°43'2 3.9
2017-Oct-16 23:00N 29°34' W 090°45'1 2.3
2017-Oct-16 22:30N 29°33' W 090°45'0 0.0
2017-Oct-16 22:00N 29°33' W 090°45'0 0.0
2017-Oct-16 21:30N 29°33' W 090°45'3 5.0
2017-Oct-16 21:00N 29°34' W 090°43'2 3.5
2017-Oct-16 20:30N 29°33' W 090°42'0 0.0
2017-Oct-16 20:00N 29°33' W 090°42'0 0.0
2017-Oct-16 19:30N 29°33' W 090°42'0 0.0
2017-Oct-16 19:00N 29°33' W 090°42'0 0.0
2017-Oct-16 18:30N 29°33' W 090°42'0 0.0
2017-Oct-16 18:00N 29°33' W 090°42'0 0.0
2017-Oct-16 17:30N 29°33' W 090°42'0 0.0
2017-Oct-16 17:00N 29°33' W 090°42'0 0.0
2017-Oct-16 16:30N 29°33' W 090°42'0 0.0
2017-Oct-16 16:00N 29°33' W 090°42'0 0.0
2017-Oct-16 15:30N 29°33' W 090°42'0 0.1
2017-Oct-16 15:00N 29°33' W 090°42'0 0.0
2017-Oct-16 14:30N 29°33' W 090°42'0 0.1
2017-Oct-16 13:30N 29°33' W 090°42'0 0.1
2017-Oct-16 13:00N 29°33' W 090°42'0 0.1
2017-Oct-16 12:30N 29°33' W 090°42'0 0.1
2017-Oct-16 12:00N 29°33' W 090°42'0 0.0
2017-Oct-16 11:30N 29°33' W 090°42'0 0.0
2017-Oct-16 11:00N 29°33' W 090°42'0 0.0
2017-Oct-16 10:30N 29°33' W 090°42'0 0.0
2017-Oct-16 10:00N 29°33' W 090°42'0 0.0
2017-Oct-16 09:30N 29°33' W 090°42'0 0.0
2017-Oct-16 09:00N 29°33' W 090°42'0 0.0
2017-Oct-16 08:30N 29°33' W 090°42'0 0.0
2017-Oct-16 08:00N 29°33' W 090°42'0 0.0
2017-Oct-16 07:30N 29°33' W 090°42'0 0.0
2017-Oct-16 07:00N 29°33' W 090°42'0 0.0
2017-Oct-16 06:30N 29°33' W 090°42'0 0.0
2017-Oct-16 06:00N 29°33' W 090°42'0 0.0
2017-Oct-16 05:30N 29°33' W 090°42'0 0.0
2017-Oct-16 05:00N 29°33' W 090°42'0 0.0
2017-Oct-16 04:30N 29°33' W 090°42'0 0.0
2017-Oct-16 04:00N 29°33' W 090°42'0 0.0
2017-Oct-16 03:31N 29°33' W 090°42'0 0.0
2017-Oct-16 03:00N 29°33' W 090°42'0 0.0
2017-Oct-16 02:30N 29°33' W 090°42'0 0.0
2017-Oct-16 02:00N 29°33' W 090°42'0 0.0
2017-Oct-16 01:30N 29°33' W 090°42'0 0.0
2017-Oct-16 01:00N 29°33' W 090°42'0 0.0
2017-Oct-16 00:30N 29°33' W 090°42'0 0.0
2017-Oct-16 00:00N 29°33' W 090°42'0 0.0
2017-Oct-15 23:30N 29°33' W 090°42'0 0.0
2017-Oct-15 23:00N 29°33' W 090°42'0 0.0
2017-Oct-15 22:30N 29°33' W 090°42'0 0.0
2017-Oct-15 22:00N 29°33' W 090°42'0 0.0
2017-Oct-15 21:30N 29°33' W 090°42'0 0.0
2017-Oct-15 21:00N 29°33' W 090°42'0 0.0
2017-Oct-15 20:30N 29°33' W 090°42'0 0.0
2017-Oct-15 20:00N 29°33' W 090°42'0 0.0
2017-Oct-15 19:30N 29°33' W 090°42'0 0.0
2017-Oct-15 19:00N 29°33' W 090°42'0 0.0
2017-Oct-15 18:30N 29°33' W 090°42'0 0.0
2017-Oct-15 18:00N 29°33' W 090°42'0 0.0
2017-Oct-15 17:30N 29°33' W 090°42'0 0.0
2017-Oct-15 17:00N 29°33' W 090°42'0 0.0
2017-Oct-15 16:30N 29°33' W 090°42'0 0.0
2017-Oct-15 16:00N 29°33' W 090°42'0 0.0
2017-Oct-15 15:30N 29°33' W 090°42'0 0.0
2017-Oct-15 15:00N 29°33' W 090°42'0 0.0
2017-Oct-15 14:00N 29°33' W 090°42'0 0.0
2017-Oct-15 13:30N 29°33' W 090°42'0 0.0
2017-Oct-15 13:00N 29°33' W 090°42'0 0.0
2017-Oct-15 12:30N 29°33' W 090°42'0 0.0
2017-Oct-15 12:00N 29°33' W 090°42'0 0.0
2017-Oct-15 11:30N 29°33' W 090°42'0 0.0
2017-Oct-15 11:00N 29°33' W 090°42'0 0.0
2017-Oct-15 10:30N 29°33' W 090°42'0 0.0
2017-Oct-15 10:00N 29°33' W 090°42'0 0.0
2017-Oct-15 09:30N 29°33' W 090°42'0 0.0
2017-Oct-15 09:00N 29°33' W 090°42'0 0.0
2017-Oct-15 08:30N 29°33' W 090°42'0 0.0
2017-Oct-15 08:00N 29°33' W 090°42'0 0.0
2017-Oct-15 07:30N 29°33' W 090°42'0 0.0
2017-Oct-15 07:00N 29°33' W 090°42'0 0.0
2017-Oct-15 06:30N 29°33' W 090°42'0 0.0
2017-Oct-15 06:00N 29°33' W 090°42'0 0.0
2017-Oct-15 05:30N 29°33' W 090°42'0 0.0
2017-Oct-15 05:00N 29°33' W 090°42'0 0.0
2017-Oct-15 04:30N 29°33' W 090°42'0 0.0
2017-Oct-15 04:00N 29°33' W 090°42'0 0.0
2017-Oct-15 03:30N 29°33' W 090°42'0 0.0
2017-Oct-15 03:00N 29°33' W 090°42'0 0.0
2017-Oct-15 02:30N 29°33' W 090°42'0 0.0
2017-Oct-15 02:00N 29°33' W 090°42'0 0.0
2017-Oct-15 01:30N 29°33' W 090°42'0 0.0
2017-Oct-15 01:00N 29°33' W 090°42'0 0.0
2017-Oct-15 00:30N 29°33' W 090°42'0 0.0
2017-Oct-15 00:00N 29°33' W 090°42'0 0.0
2017-Oct-14 23:30N 29°33' W 090°42'0 0.0
2017-Oct-14 23:00N 29°33' W 090°42'0 0.0
2017-Oct-14 22:30N 29°33' W 090°42'0 0.0
2017-Oct-14 22:00N 29°33' W 090°42'0 0.0
2017-Oct-14 21:30N 29°33' W 090°42'0 0.0
2017-Oct-14 21:00N 29°33' W 090°42'0 0.0
2017-Oct-14 20:30N 29°33' W 090°42'0 0.0
2017-Oct-14 20:00N 29°33' W 090°42'0 0.0
2017-Oct-14 19:30N 29°33' W 090°42'0 0.0
2017-Oct-14 19:00N 29°33' W 090°42'0 0.0
2017-Oct-14 18:30N 29°33' W 090°42'0 0.0
2017-Oct-14 18:00N 29°33' W 090°42'0 0.0
2017-Oct-14 17:30N 29°33' W 090°42'0 0.0
2017-Oct-14 17:00N 29°33' W 090°42'0 0.2
2017-Oct-14 16:30N 29°33' W 090°42'1 1.7
2017-Oct-14 16:00N 29°34' W 090°42'0 0.5
2017-Oct-14 15:30N 29°34' W 090°42'0 0.3
2017-Oct-14 15:00N 29°34' W 090°42'0 0.6
2017-Oct-14 14:30N 29°34' W 090°42'0 0.2
2017-Oct-14 14:00N 29°34' W 090°42'0 0.4
2017-Oct-14 13:30N 29°34' W 090°42'0 0.3
2017-Oct-14 13:00N 29°34' W 090°42'1 2.2
2017-Oct-14 12:30N 29°33' W 090°42'0 0.0
2017-Oct-14 12:00N 29°33' W 090°42'0 0.0
2017-Oct-14 11:30N 29°33' W 090°42'0 0.0
2017-Oct-14 11:00N 29°33' W 090°42'0 0.0
2017-Oct-14 10:30N 29°33' W 090°42'0 0.0
2017-Oct-14 10:00N 29°33' W 090°42'0 0.0
2017-Oct-14 09:30N 29°33' W 090°42'0 0.0
2017-Oct-14 09:00N 29°33' W 090°42'0 0.0
2017-Oct-14 08:30N 29°33' W 090°42'0 0.0
2017-Oct-14 08:00N 29°33' W 090°42'0 0.0
2017-Oct-14 07:30N 29°33' W 090°42'0 0.0
2017-Oct-14 07:00N 29°33' W 090°42'0 0.0
2017-Oct-14 06:30N 29°33' W 090°42'0 0.0
2017-Oct-14 06:00N 29°33' W 090°42'0 0.0
2017-Oct-14 05:30N 29°33' W 090°42'0 0.0
2017-Oct-14 05:00N 29°33' W 090°42'0 0.0
2017-Oct-14 04:30N 29°33' W 090°42'0 0.0
2017-Oct-14 04:00N 29°33' W 090°42'0 0.1
2017-Oct-14 03:30N 29°33' W 090°42'1 1.4
2017-Oct-14 03:00N 29°32' W 090°42'1 1.4
2017-Oct-14 02:30N 29°33' W 090°42'0 0.0
2017-Oct-14 02:00N 29°33' W 090°42'0 0.0
2017-Oct-14 01:28N 29°33' W 090°42'0 0.0
2017-Oct-14 01:01N 29°33' W 090°42'0 0.0
2017-Oct-14 00:30N 29°33' W 090°42'0 0.0
2017-Oct-14 00:00N 29°33' W 090°42'0 0.0
2017-Oct-13 23:30N 29°33' W 090°42'0 0.0
2017-Oct-13 23:00N 29°33' W 090°42'0 0.0
2017-Oct-13 22:30N 29°33' W 090°42'0 0.0
2017-Oct-13 22:00N 29°33' W 090°42'0 0.0
2017-Oct-13 21:30N 29°33' W 090°42'0 0.0
2017-Oct-13 21:00N 29°33' W 090°42'0 0.0
2017-Oct-13 20:30N 29°33' W 090°42'0 0.0
2017-Oct-13 20:00N 29°33' W 090°42'0 0.0
2017-Oct-13 19:30N 29°33' W 090°42'0 0.0
2017-Oct-13 19:00N 29°33' W 090°42'0 0.0
2017-Oct-13 18:30N 29°33' W 090°42'0 0.0
2017-Oct-13 18:00N 29°33' W 090°42'0 0.1
2017-Oct-13 17:30N 29°33' W 090°42'0 0.1
2017-Oct-13 17:00N 29°33' W 090°42'0 0.0
2017-Oct-13 16:30N 29°33' W 090°42'0 0.0
2017-Oct-13 16:00N 29°33' W 090°42'0 0.0
2017-Oct-13 15:30N 29°33' W 090°42'0 0.0
2017-Oct-13 15:00N 29°33' W 090°42'0 0.0
2017-Oct-13 14:30N 29°33' W 090°42'0 0.0
2017-Oct-13 14:00N 29°33' W 090°42'0 0.0
2017-Oct-13 13:30N 29°33' W 090°42'0 0.0
2017-Oct-13 13:00N 29°33' W 090°42'0 0.0
2017-Oct-13 12:30N 29°33' W 090°42'0 0.0
2017-Oct-13 12:00N 29°33' W 090°42'0 0.0
2017-Oct-13 11:30N 29°33' W 090°42'0 0.0
2017-Oct-13 11:00N 29°33' W 090°42'2 3.4
2017-Oct-13 10:30N 29°34' W 090°43'3 5.5
2017-Oct-13 10:00N 29°37' W 090°42'4 7.2
2017-Oct-13 09:30N 29°35' W 090°38'3 6.6
2017-Oct-13 09:00N 29°34' W 090°34'4 7.6
2017-Oct-13 08:30N 29°34' W 090°30'4 0.1
2017-Oct-12 02:56N 29°33' W 090°26'3 8.0
2017-Oct-12 02:30N 29°34' W 090°30'4 7.9
2017-Oct-12 02:00N 29°34' W 090°34'4 7.1
2017-Oct-12 01:30N 29°35' W 090°38'2 3.0
2017-Oct-12 01:00N 29°36' W 090°40'0 0.0
2017-Oct-12 00:30N 29°36' W 090°40'0 0.5
2017-Oct-12 00:00N 29°36' W 090°40'2 3.9
2017-Oct-11 23:30N 29°37' W 090°42'3 6.0
2017-Oct-11 23:00N 29°34' W 090°43'0 0.0
2017-Oct-11 22:30N 29°34' W 090°43'0 0.0
2017-Oct-11 22:00N 29°34' W 090°43'2 4.9
2017-Oct-11 21:30N 29°33' W 090°46'4 8.4
2017-Oct-11 21:00N 29°32' W 090°50'  

Dump ship's entire track history